sensor_id;sensor_type;location;lat;lon;timestamp;P1;durP1;ratioP1;P2;durP2;ratioP2
39518;SDS011;25200;53.394;10.414;2022-11-20T00:01:41;7.45;;;4.07;;
39518;SDS011;25200;53.394;10.414;2022-11-20T00:04:07;9.65;;;4.53;;
39518;SDS011;25200;53.394;10.414;2022-11-20T00:06:35;7.50;;;4.10;;
39518;SDS011;25200;53.394;10.414;2022-11-20T00:09:01;11.68;;;4.75;;
39518;SDS011;25200;53.394;10.414;2022-11-20T00:11:27;8.27;;;4.10;;
39518;SDS011;25200;53.394;10.414;2022-11-20T00:13:56;11.05;;;4.10;;
39518;SDS011;25200;53.394;10.414;2022-11-20T00:16:24;9.43;;;3.75;;
39518;SDS011;25200;53.394;10.414;2022-11-20T00:18:52;9.85;;;4.30;;
39518;SDS011;25200;53.394;10.414;2022-11-20T00:21:19;9.50;;;4.10;;
39518;SDS011;25200;53.394;10.414;2022-11-20T00:23:46;8.70;;;4.32;;
39518;SDS011;25200;53.394;10.414;2022-11-20T00:26:14;8.98;;;4.13;;
39518;SDS011;25200;53.394;10.414;2022-11-20T00:28:42;7.93;;;3.78;;
39518;SDS011;25200;53.394;10.414;2022-11-20T00:31:10;7.25;;;3.67;;
39518;SDS011;25200;53.394;10.414;2022-11-20T00:33:38;8.10;;;3.90;;
39518;SDS011;25200;53.394;10.414;2022-11-20T00:36:04;9.32;;;4.13;;
39518;SDS011;25200;53.394;10.414;2022-11-20T00:38:35;8.85;;;3.78;;
39518;SDS011;25200;53.394;10.414;2022-11-20T00:41:02;7.38;;;3.80;;
39518;SDS011;25200;53.394;10.414;2022-11-20T00:43:31;9.00;;;3.90;;
39518;SDS011;25200;53.394;10.414;2022-11-20T00:46:00;6.65;;;3.78;;
39518;SDS011;25200;53.394;10.414;2022-11-20T00:48:30;9.60;;;4.22;;
39518;SDS011;25200;53.394;10.414;2022-11-20T00:50:56;7.57;;;3.85;;
39518;SDS011;25200;53.394;10.414;2022-11-20T00:53:22;10.93;;;4.38;;
39518;SDS011;25200;53.394;10.414;2022-11-20T00:58:44;7.20;;;3.92;;
39518;SDS011;25200;53.394;10.414;2022-11-20T01:01:12;9.30;;;4.00;;
39518;SDS011;25200;53.394;10.414;2022-11-20T01:03:42;10.80;;;4.57;;
39518;SDS011;25200;53.394;10.414;2022-11-20T01:06:11;10.35;;;3.92;;
39518;SDS011;25200;53.394;10.414;2022-11-20T01:08:38;9.48;;;4.25;;
39518;SDS011;25200;53.394;10.414;2022-11-20T01:11:12;8.07;;;3.88;;
39518;SDS011;25200;53.394;10.414;2022-11-20T01:13:42;7.45;;;3.80;;
39518;SDS011;25200;53.394;10.414;2022-11-20T01:16:13;7.97;;;4.13;;
39518;SDS011;25200;53.394;10.414;2022-11-20T01:18:54;7.88;;;4.20;;
39518;SDS011;25200;53.394;10.414;2022-11-20T01:21:26;8.07;;;3.97;;
39518;SDS011;25200;53.394;10.414;2022-11-20T01:23:57;9.20;;;4.43;;
39518;SDS011;25200;53.394;10.414;2022-11-20T01:26:24;8.15;;;3.80;;
39518;SDS011;25200;53.394;10.414;2022-11-20T01:28:54;10.10;;;4.30;;
39518;SDS011;25200;53.394;10.414;2022-11-20T01:33:51;7.85;;;3.90;;
39518;SDS011;25200;53.394;10.414;2022-11-20T01:36:20;8.80;;;4.07;;
39518;SDS011;25200;53.394;10.414;2022-11-20T01:38:47;9.68;;;4.50;;
39518;SDS011;25200;53.394;10.414;2022-11-20T01:41:16;8.23;;;4.38;;
39518;SDS011;25200;53.394;10.414;2022-11-20T01:44:00;8.38;;;4.32;;
39518;SDS011;25200;53.394;10.414;2022-11-20T01:46:27;10.13;;;4.75;;
39518;SDS011;25200;53.394;10.414;2022-11-20T01:51:38;8.07;;;4.60;;
39518;SDS011;25200;53.394;10.414;2022-11-20T01:54:07;7.80;;;4.25;;
39518;SDS011;25200;53.394;10.414;2022-11-20T01:56:37;9.75;;;4.65;;
39518;SDS011;25200;53.394;10.414;2022-11-20T01:59:07;8.73;;;4.60;;
39518;SDS011;25200;53.394;10.414;2022-11-20T02:01:34;9.07;;;4.13;;
39518;SDS011;25200;53.394;10.414;2022-11-20T02:04:00;8.88;;;4.22;;
39518;SDS011;25200;53.394;10.414;2022-11-20T02:06:31;9.48;;;4.38;;
39518;SDS011;25200;53.394;10.414;2022-11-20T02:09:10;9.30;;;4.00;;
39518;SDS011;25200;53.394;10.414;2022-11-20T02:11:37;10.20;;;4.85;;
39518;SDS011;25200;53.394;10.414;2022-11-20T02:14:02;7.95;;;3.97;;
39518;SDS011;25200;53.394;10.414;2022-11-20T02:16:30;9.75;;;4.28;;
39518;SDS011;25200;53.394;10.414;2022-11-20T02:19:00;7.38;;;3.80;;
39518;SDS011;25200;53.394;10.414;2022-11-20T02:21:37;10.82;;;4.30;;
39518;SDS011;25200;53.394;10.414;2022-11-20T02:26:55;9.38;;;4.55;;
39518;SDS011;25200;53.394;10.414;2022-11-20T02:29:35;8.13;;;4.25;;
39518;SDS011;25200;53.394;10.414;2022-11-20T02:32:04;8.15;;;4.18;;
39518;SDS011;25200;53.394;10.414;2022-11-20T02:34:30;9.50;;;4.47;;
39518;SDS011;25200;53.394;10.414;2022-11-20T02:36:56;9.18;;;4.40;;
39518;SDS011;25200;53.394;10.414;2022-11-20T02:39:22;8.18;;;4.20;;
39518;SDS011;25200;53.394;10.414;2022-11-20T02:41:53;7.93;;;3.75;;
39518;SDS011;25200;53.394;10.414;2022-11-20T02:44:20;9.85;;;4.25;;
39518;SDS011;25200;53.394;10.414;2022-11-20T02:46:46;7.75;;;4.03;;
39518;SDS011;25200;53.394;10.414;2022-11-20T02:49:11;7.32;;;4.43;;
39518;SDS011;25200;53.394;10.414;2022-11-20T02:51:37;7.57;;;3.78;;
39518;SDS011;25200;53.394;10.414;2022-11-20T02:54:03;11.25;;;4.03;;
39518;SDS011;25200;53.394;10.414;2022-11-20T02:56:28;8.63;;;4.13;;
39518;SDS011;25200;53.394;10.414;2022-11-20T02:58:54;8.93;;;4.28;;
39518;SDS011;25200;53.394;10.414;2022-11-20T03:01:20;7.35;;;3.75;;
39518;SDS011;25200;53.394;10.414;2022-11-20T03:03:46;8.90;;;3.92;;
39518;SDS011;25200;53.394;10.414;2022-11-20T03:06:13;6.78;;;3.75;;
39518;SDS011;25200;53.394;10.414;2022-11-20T03:08:40;6.55;;;3.83;;
39518;SDS011;25200;53.394;10.414;2022-11-20T03:11:06;7.80;;;3.88;;
39518;SDS011;25200;53.394;10.414;2022-11-20T03:13:33;8.55;;;4.05;;
39518;SDS011;25200;53.394;10.414;2022-11-20T03:16:04;7.45;;;3.92;;
39518;SDS011;25200;53.394;10.414;2022-11-20T03:18:41;8.07;;;4.28;;
39518;SDS011;25200;53.394;10.414;2022-11-20T03:21:07;7.18;;;3.92;;
39518;SDS011;25200;53.394;10.414;2022-11-20T03:23:33;7.25;;;3.67;;
39518;SDS011;25200;53.394;10.414;2022-11-20T03:26:07;7.93;;;4.07;;
39518;SDS011;25200;53.394;10.414;2022-11-20T03:28:34;8.80;;;3.77;;
39518;SDS011;25200;53.394;10.414;2022-11-20T03:31:10;7.38;;;3.53;;
39518;SDS011;25200;53.394;10.414;2022-11-20T03:33:37;7.75;;;3.55;;
39518;SDS011;25200;53.394;10.414;2022-11-20T03:36:05;6.50;;;3.63;;
39518;SDS011;25200;53.394;10.414;2022-11-20T03:38:32;6.97;;;3.47;;
39518;SDS011;25200;53.394;10.414;2022-11-20T03:41:02;9.00;;;3.75;;
39518;SDS011;25200;53.394;10.414;2022-11-20T03:43:32;8.35;;;3.90;;
39518;SDS011;25200;53.394;10.414;2022-11-20T03:45:58;7.45;;;3.85;;
39518;SDS011;25200;53.394;10.414;2022-11-20T03:48:24;8.55;;;4.13;;
39518;SDS011;25200;53.394;10.414;2022-11-20T03:50:51;9.32;;;3.70;;
39518;SDS011;25200;53.394;10.414;2022-11-20T03:53:17;7.57;;;3.80;;
39518;SDS011;25200;53.394;10.414;2022-11-20T03:55:43;6.63;;;3.53;;
39518;SDS011;25200;53.394;10.414;2022-11-20T03:58:09;6.57;;;3.58;;
39518;SDS011;25200;53.394;10.414;2022-11-20T04:00:35;9.68;;;3.63;;
39518;SDS011;25200;53.394;10.414;2022-11-20T04:03:01;7.30;;;3.67;;
39518;SDS011;25200;53.394;10.414;2022-11-20T04:05:27;7.15;;;3.90;;
39518;SDS011;25200;53.394;10.414;2022-11-20T04:07:53;8.27;;;3.90;;
39518;SDS011;25200;53.394;10.414;2022-11-20T04:10:19;6.28;;;3.55;;
39518;SDS011;25200;53.394;10.414;2022-11-20T04:12:44;6.53;;;3.00;;
39518;SDS011;25200;53.394;10.414;2022-11-20T04:15:10;7.20;;;3.65;;
39518;SDS011;25200;53.394;10.414;2022-11-20T04:17:36;7.40;;;3.75;;
39518;SDS011;25200;53.394;10.414;2022-11-20T04:20:02;8.88;;;4.28;;
39518;SDS011;25200;53.394;10.414;2022-11-20T04:22:28;10.80;;;4.03;;
39518;SDS011;25200;53.394;10.414;2022-11-20T04:24:54;7.00;;;3.90;;
39518;SDS011;25200;53.394;10.414;2022-11-20T04:27:19;8.55;;;4.03;;
39518;SDS011;25200;53.394;10.414;2022-11-20T04:29:45;10.23;;;3.78;;
39518;SDS011;25200;53.394;10.414;2022-11-20T04:32:10;6.90;;;3.97;;
39518;SDS011;25200;53.394;10.414;2022-11-20T04:34:36;7.45;;;3.50;;
39518;SDS011;25200;53.394;10.414;2022-11-20T04:37:02;5.95;;;3.45;;
39518;SDS011;25200;53.394;10.414;2022-11-20T04:39:27;8.52;;;4.05;;
39518;SDS011;25200;53.394;10.414;2022-11-20T04:41:53;7.32;;;3.60;;
39518;SDS011;25200;53.394;10.414;2022-11-20T04:44:38;9.32;;;4.50;;
39518;SDS011;25200;53.394;10.414;2022-11-20T04:47:04;6.10;;;3.47;;
39518;SDS011;25200;53.394;10.414;2022-11-20T04:49:30;8.80;;;3.38;;
39518;SDS011;25200;53.394;10.414;2022-11-20T04:51:56;10.13;;;3.80;;
39518;SDS011;25200;53.394;10.414;2022-11-20T04:54:22;7.05;;;3.97;;
39518;SDS011;25200;53.394;10.414;2022-11-20T04:56:48;7.85;;;3.92;;
39518;SDS011;25200;53.394;10.414;2022-11-20T04:59:15;8.43;;;3.95;;
39518;SDS011;25200;53.394;10.414;2022-11-20T05:01:40;7.82;;;3.80;;
39518;SDS011;25200;53.394;10.414;2022-11-20T05:04:06;7.35;;;3.67;;
39518;SDS011;25200;53.394;10.414;2022-11-20T05:06:32;8.43;;;3.80;;
39518;SDS011;25200;53.394;10.414;2022-11-20T05:08:58;10.10;;;3.70;;
39518;SDS011;25200;53.394;10.414;2022-11-20T05:11:24;11.05;;;3.85;;
39518;SDS011;25200;53.394;10.414;2022-11-20T05:13:50;8.43;;;3.85;;
39518;SDS011;25200;53.394;10.414;2022-11-20T05:16:17;7.25;;;3.67;;
39518;SDS011;25200;53.394;10.414;2022-11-20T05:18:45;7.30;;;3.88;;
39518;SDS011;25200;53.394;10.414;2022-11-20T05:21:11;7.60;;;3.72;;
39518;SDS011;25200;53.394;10.414;2022-11-20T05:23:37;6.30;;;3.75;;
39518;SDS011;25200;53.394;10.414;2022-11-20T05:26:04;7.90;;;4.13;;
39518;SDS011;25200;53.394;10.414;2022-11-20T05:28:31;7.60;;;4.25;;
39518;SDS011;25200;53.394;10.414;2022-11-20T05:31:11;6.60;;;3.47;;
39518;SDS011;25200;53.394;10.414;2022-11-20T05:33:41;7.53;;;4.13;;
39518;SDS011;25200;53.394;10.414;2022-11-20T05:36:08;7.25;;;3.45;;
39518;SDS011;25200;53.394;10.414;2022-11-20T05:38:35;8.40;;;3.80;;
39518;SDS011;25200;53.394;10.414;2022-11-20T05:41:08;9.27;;;4.28;;
39518;SDS011;25200;53.394;10.414;2022-11-20T05:43:45;9.55;;;3.63;;
39518;SDS011;25200;53.394;10.414;2022-11-20T05:46:13;6.88;;;3.35;;
39518;SDS011;25200;53.394;10.414;2022-11-20T05:48:41;8.00;;;4.03;;
39518;SDS011;25200;53.394;10.414;2022-11-20T05:51:08;7.43;;;3.53;;
39518;SDS011;25200;53.394;10.414;2022-11-20T05:53:36;7.70;;;3.80;;
39518;SDS011;25200;53.394;10.414;2022-11-20T05:56:03;7.93;;;3.63;;
39518;SDS011;25200;53.394;10.414;2022-11-20T05:58:31;8.18;;;4.25;;
39518;SDS011;25200;53.394;10.414;2022-11-20T06:01:10;8.13;;;4.10;;
39518;SDS011;25200;53.394;10.414;2022-11-20T06:03:47;6.93;;;3.55;;
39518;SDS011;25200;53.394;10.414;2022-11-20T06:06:15;9.13;;;4.07;;
39518;SDS011;25200;53.394;10.414;2022-11-20T06:08:41;7.90;;;4.03;;
39518;SDS011;25200;53.394;10.414;2022-11-20T06:11:08;7.32;;;3.78;;
39518;SDS011;25200;53.394;10.414;2022-11-20T06:13:35;9.95;;;4.22;;
39518;SDS011;25200;53.394;10.414;2022-11-20T06:16:02;7.03;;;3.90;;
39518;SDS011;25200;53.394;10.414;2022-11-20T06:18:28;7.32;;;3.78;;
39518;SDS011;25200;53.394;10.414;2022-11-20T06:21:01;7.32;;;3.88;;
39518;SDS011;25200;53.394;10.414;2022-11-20T06:23:31;8.32;;;4.03;;
39518;SDS011;25200;53.394;10.414;2022-11-20T06:26:05;7.68;;;3.60;;
39518;SDS011;25200;53.394;10.414;2022-11-20T06:28:41;7.80;;;3.88;;
39518;SDS011;25200;53.394;10.414;2022-11-20T06:31:07;10.48;;;4.68;;
39518;SDS011;25200;53.394;10.414;2022-11-20T06:33:35;8.80;;;4.20;;
39518;SDS011;25200;53.394;10.414;2022-11-20T06:36:01;9.32;;;4.43;;
39518;SDS011;25200;53.394;10.414;2022-11-20T06:38:27;8.20;;;4.22;;
39518;SDS011;25200;53.394;10.414;2022-11-20T06:40:53;7.78;;;4.10;;
39518;SDS011;25200;53.394;10.414;2022-11-20T06:43:21;8.40;;;4.53;;
39518;SDS011;25200;53.394;10.414;2022-11-20T06:45:51;7.90;;;3.78;;
39518;SDS011;25200;53.394;10.414;2022-11-20T06:48:18;8.98;;;4.80;;
39518;SDS011;25200;53.394;10.414;2022-11-20T06:50:44;8.80;;;3.83;;
39518;SDS011;25200;53.394;10.414;2022-11-20T06:53:09;6.80;;;3.70;;
39518;SDS011;25200;53.394;10.414;2022-11-20T06:55:35;9.95;;;4.00;;
39518;SDS011;25200;53.394;10.414;2022-11-20T06:58:00;8.85;;;4.03;;
39518;SDS011;25200;53.394;10.414;2022-11-20T07:00:26;10.20;;;4.70;;
39518;SDS011;25200;53.394;10.414;2022-11-20T07:02:52;8.38;;;4.63;;
39518;SDS011;25200;53.394;10.414;2022-11-20T07:05:17;10.65;;;4.70;;
39518;SDS011;25200;53.394;10.414;2022-11-20T07:07:43;8.07;;;4.18;;
39518;SDS011;25200;53.394;10.414;2022-11-20T07:10:09;8.73;;;3.85;;
39518;SDS011;25200;53.394;10.414;2022-11-20T07:12:35;7.13;;;3.70;;
39518;SDS011;25200;53.394;10.414;2022-11-20T07:15:00;7.00;;;3.72;;
39518;SDS011;25200;53.394;10.414;2022-11-20T07:17:26;8.38;;;4.38;;
39518;SDS011;25200;53.394;10.414;2022-11-20T07:19:52;6.93;;;3.80;;
39518;SDS011;25200;53.394;10.414;2022-11-20T07:22:18;8.63;;;4.28;;
39518;SDS011;25200;53.394;10.414;2022-11-20T07:24:46;8.77;;;3.83;;
39518;SDS011;25200;53.394;10.414;2022-11-20T07:27:12;7.90;;;4.22;;
39518;SDS011;25200;53.394;10.414;2022-11-20T07:29:38;7.35;;;3.83;;
39518;SDS011;25200;53.394;10.414;2022-11-20T07:32:03;7.53;;;4.05;;
39518;SDS011;25200;53.394;10.414;2022-11-20T07:34:29;8.50;;;4.47;;
39518;SDS011;25200;53.394;10.414;2022-11-20T07:36:55;8.40;;;4.30;;
39518;SDS011;25200;53.394;10.414;2022-11-20T07:39:20;9.13;;;4.65;;
39518;SDS011;25200;53.394;10.414;2022-11-20T07:41:46;9.73;;;4.90;;
39518;SDS011;25200;53.394;10.414;2022-11-20T07:44:12;9.57;;;4.50;;
39518;SDS011;25200;53.394;10.414;2022-11-20T07:46:37;7.95;;;4.70;;
39518;SDS011;25200;53.394;10.414;2022-11-20T07:49:03;8.73;;;5.05;;
39518;SDS011;25200;53.394;10.414;2022-11-20T07:51:28;9.15;;;4.95;;
39518;SDS011;25200;53.394;10.414;2022-11-20T07:53:54;10.15;;;4.57;;
39518;SDS011;25200;53.394;10.414;2022-11-20T07:56:20;9.32;;;5.18;;
39518;SDS011;25200;53.394;10.414;2022-11-20T07:58:45;11.85;;;5.43;;
39518;SDS011;25200;53.394;10.414;2022-11-20T08:01:11;9.98;;;5.18;;
39518;SDS011;25200;53.394;10.414;2022-11-20T08:03:37;10.60;;;4.95;;
39518;SDS011;25200;53.394;10.414;2022-11-20T08:06:02;9.70;;;4.72;;
39518;SDS011;25200;53.394;10.414;2022-11-20T08:08:28;12.15;;;5.22;;
39518;SDS011;25200;53.394;10.414;2022-11-20T08:10:56;9.45;;;4.95;;
39518;SDS011;25200;53.394;10.414;2022-11-20T08:13:42;10.68;;;4.95;;
39518;SDS011;25200;53.394;10.414;2022-11-20T08:16:27;10.07;;;5.03;;
39518;SDS011;25200;53.394;10.414;2022-11-20T08:18:53;10.13;;;4.75;;
39518;SDS011;25200;53.394;10.414;2022-11-20T08:21:19;8.85;;;4.63;;
39518;SDS011;25200;53.394;10.414;2022-11-20T08:23:44;8.55;;;4.82;;
39518;SDS011;25200;53.394;10.414;2022-11-20T08:26:10;9.68;;;5.10;;
39518;SDS011;25200;53.394;10.414;2022-11-20T08:28:35;8.93;;;4.45;;
39518;SDS011;25200;53.394;10.414;2022-11-20T08:31:02;8.30;;;4.68;;
39518;SDS011;25200;53.394;10.414;2022-11-20T08:33:28;8.93;;;4.10;;
39518;SDS011;25200;53.394;10.414;2022-11-20T08:35:57;9.23;;;4.88;;
39518;SDS011;25200;53.394;10.414;2022-11-20T08:38:26;12.75;;;5.70;;
39518;SDS011;25200;53.394;10.414;2022-11-20T08:40:55;7.75;;;4.43;;
39518;SDS011;25200;53.394;10.414;2022-11-20T08:43:40;7.97;;;4.07;;
39518;SDS011;25200;53.394;10.414;2022-11-20T08:46:06;10.13;;;4.70;;
39518;SDS011;25200;53.394;10.414;2022-11-20T08:48:32;8.77;;;4.50;;
39518;SDS011;25200;53.394;10.414;2022-11-20T08:50:58;11.07;;;5.05;;
39518;SDS011;25200;53.394;10.414;2022-11-20T08:53:24;13.13;;;5.30;;
39518;SDS011;25200;53.394;10.414;2022-11-20T08:55:50;10.30;;;5.03;;
39518;SDS011;25200;53.394;10.414;2022-11-20T08:58:16;10.55;;;5.20;;
39518;SDS011;25200;53.394;10.414;2022-11-20T09:00:41;10.02;;;4.90;;
39518;SDS011;25200;53.394;10.414;2022-11-20T09:03:07;8.95;;;4.75;;
39518;SDS011;25200;53.394;10.414;2022-11-20T09:05:33;8.82;;;4.57;;
39518;SDS011;25200;53.394;10.414;2022-11-20T09:07:58;8.65;;;4.80;;
39518;SDS011;25200;53.394;10.414;2022-11-20T09:10:25;10.20;;;4.80;;
39518;SDS011;25200;53.394;10.414;2022-11-20T09:12:53;8.40;;;4.30;;
39518;SDS011;25200;53.394;10.414;2022-11-20T09:15:23;11.00;;;5.10;;
39518;SDS011;25200;53.394;10.414;2022-11-20T09:17:50;11.10;;;5.40;;
39518;SDS011;25200;53.394;10.414;2022-11-20T09:20:20;10.23;;;5.40;;
39518;SDS011;25200;53.394;10.414;2022-11-20T09:22:46;12.05;;;5.88;;
39518;SDS011;25200;53.394;10.414;2022-11-20T09:25:12;11.02;;;5.15;;
39518;SDS011;25200;53.394;10.414;2022-11-20T09:27:37;10.77;;;5.40;;
39518;SDS011;25200;53.394;10.414;2022-11-20T09:30:03;12.75;;;7.03;;
39518;SDS011;25200;53.394;10.414;2022-11-20T09:32:29;12.05;;;6.75;;
39518;SDS011;25200;53.394;10.414;2022-11-20T09:34:55;12.25;;;6.57;;
39518;SDS011;25200;53.394;10.414;2022-11-20T09:37:20;12.35;;;6.63;;
39518;SDS011;25200;53.394;10.414;2022-11-20T09:39:46;12.10;;;7.03;;
39518;SDS011;25200;53.394;10.414;2022-11-20T09:55:33;11.57;;;6.60;;
39518;SDS011;25200;53.394;10.414;2022-11-20T09:58:01;9.95;;;5.75;;
39518;SDS011;25200;53.394;10.414;2022-11-20T10:00:30;8.82;;;5.43;;
39518;SDS011;25200;53.394;10.414;2022-11-20T10:05:28;9.88;;;5.25;;
39518;SDS011;25200;53.394;10.414;2022-11-20T10:08:16;8.68;;;4.95;;
39518;SDS011;25200;53.394;10.414;2022-11-20T10:14:13;9.05;;;5.07;;
39518;SDS011;25200;53.394;10.414;2022-11-20T10:22:35;7.20;;;4.13;;
39518;SDS011;25200;53.394;10.414;2022-11-20T10:25:16;7.32;;;4.07;;
39518;SDS011;25200;53.394;10.414;2022-11-20T10:30:14;8.20;;;4.45;;
39518;SDS011;25200;53.394;10.414;2022-11-20T10:38:43;7.85;;;4.68;;
39518;SDS011;25200;53.394;10.414;2022-11-20T10:41:19;7.22;;;4.32;;
39518;SDS011;25200;53.394;10.414;2022-11-20T10:43:57;8.93;;;4.70;;
39518;SDS011;25200;53.394;10.414;2022-11-20T10:46:24;8.90;;;4.30;;
39518;SDS011;25200;53.394;10.414;2022-11-20T10:48:52;8.90;;;4.22;;
39518;SDS011;25200;53.394;10.414;2022-11-20T10:51:21;9.45;;;4.20;;
39518;SDS011;25200;53.394;10.414;2022-11-20T10:57:35;7.05;;;3.85;;
39518;SDS011;25200;53.394;10.414;2022-11-20T11:00:01;6.93;;;3.60;;
39518;SDS011;25200;53.394;10.414;2022-11-20T11:05:39;4.43;;;2.47;;
39518;SDS011;25200;53.394;10.414;2022-11-20T11:08:12;5.63;;;2.80;;
39518;SDS011;25200;53.394;10.414;2022-11-20T11:13:20;5.07;;;2.58;;
39518;SDS011;25200;53.394;10.414;2022-11-20T11:15:50;5.32;;;2.78;;
39518;SDS011;25200;53.394;10.414;2022-11-20T11:18:49;5.13;;;2.75;;
39518;SDS011;25200;53.394;10.414;2022-11-20T11:21:08;5.05;;;2.90;;
39518;SDS011;25200;53.394;10.414;2022-11-20T11:23:41;5.88;;;3.22;;
39518;SDS011;25200;53.394;10.414;2022-11-20T11:26:21;4.97;;;2.70;;
39518;SDS011;25200;53.394;10.414;2022-11-20T11:28:54;5.20;;;2.70;;
39518;SDS011;25200;53.394;10.414;2022-11-20T11:31:30;4.88;;;2.70;;
39518;SDS011;25200;53.394;10.414;2022-11-20T11:34:13;4.80;;;2.40;;
39518;SDS011;25200;53.394;10.414;2022-11-20T11:36:40;5.00;;;2.10;;
39518;SDS011;25200;53.394;10.414;2022-11-20T11:39:26;4.70;;;2.47;;
39518;SDS011;25200;53.394;10.414;2022-11-20T11:41:53;5.20;;;2.40;;
39518;SDS011;25200;53.394;10.414;2022-11-20T11:44:20;4.90;;;2.83;;
39518;SDS011;25200;53.394;10.414;2022-11-20T11:49:34;6.10;;;2.70;;
39518;SDS011;25200;53.394;10.414;2022-11-20T11:54:57;4.28;;;2.20;;
39518;SDS011;25200;53.394;10.414;2022-11-20T11:57:33;4.32;;;2.17;;
39518;SDS011;25200;53.394;10.414;2022-11-20T12:00:18;4.40;;;2.17;;
39518;SDS011;25200;53.394;10.414;2022-11-20T12:05:28;4.38;;;2.50;;
39518;SDS011;25200;53.394;10.414;2022-11-20T12:08:05;4.40;;;2.40;;
39518;SDS011;25200;53.394;10.414;2022-11-20T12:14:27;4.03;;;2.08;;
39518;SDS011;25200;53.394;10.414;2022-11-20T12:16:30;4.63;;;2.38;;
39518;SDS011;25200;53.394;10.414;2022-11-20T12:19:00;4.40;;;2.25;;
39518;SDS011;25200;53.394;10.414;2022-11-20T12:21:31;5.35;;;2.60;;
39518;SDS011;25200;53.394;10.414;2022-11-20T12:43:27;4.97;;;2.42;;
39518;SDS011;25200;53.394;10.414;2022-11-20T12:51:44;6.28;;;2.53;;
39518;SDS011;25200;53.394;10.414;2022-11-20T13:02:25;4.38;;;2.20;;
39518;SDS011;25200;53.394;10.414;2022-11-20T13:05:15;4.03;;;2.00;;
39518;SDS011;25200;53.394;10.414;2022-11-20T13:07:47;4.75;;;2.22;;
39518;SDS011;25200;53.394;10.414;2022-11-20T13:10:20;4.93;;;1.98;;
39518;SDS011;25200;53.394;10.414;2022-11-20T13:12:57;4.50;;;2.17;;
39518;SDS011;25200;53.394;10.414;2022-11-20T13:18:12;4.50;;;1.98;;
39518;SDS011;25200;53.394;10.414;2022-11-20T13:20:43;4.65;;;2.40;;
39518;SDS011;25200;53.394;10.414;2022-11-20T13:23:09;4.30;;;2.00;;
39518;SDS011;25200;53.394;10.414;2022-11-20T13:25:36;4.50;;;2.40;;
39518;SDS011;25200;53.394;10.414;2022-11-20T13:29:00;4.40;;;2.35;;
39518;SDS011;25200;53.394;10.414;2022-11-20T13:30:54;4.05;;;2.20;;
39518;SDS011;25200;53.394;10.414;2022-11-20T13:33:23;3.90;;;2.10;;
39518;SDS011;25200;53.394;10.414;2022-11-20T13:36:04;4.43;;;2.40;;
39518;SDS011;25200;53.394;10.414;2022-11-20T13:38:46;6.85;;;2.33;;
39518;SDS011;25200;53.394;10.414;2022-11-20T13:47:04;4.47;;;2.03;;
39518;SDS011;25200;53.394;10.414;2022-11-20T13:49:47;5.65;;;2.08;;
39518;SDS011;25200;53.394;10.414;2022-11-20T14:00:22;4.77;;;2.10;;
39518;SDS011;25200;53.394;10.414;2022-11-20T14:05:30;5.13;;;2.50;;
39518;SDS011;25200;53.394;10.414;2022-11-20T14:08:19;4.00;;;2.20;;
39518;SDS011;25200;53.394;10.414;2022-11-20T14:10:50;5.13;;;2.03;;
39518;SDS011;25200;53.394;10.414;2022-11-20T14:13:19;4.97;;;2.20;;
39518;SDS011;25200;53.394;10.414;2022-11-20T14:15:45;6.35;;;2.13;;
39518;SDS011;25200;53.394;10.414;2022-11-20T14:18:12;4.57;;;2.00;;
39518;SDS011;25200;53.394;10.414;2022-11-20T14:20:44;4.30;;;1.92;;
39518;SDS011;25200;53.394;10.414;2022-11-20T14:23:10;3.60;;;1.90;;
39518;SDS011;25200;53.394;10.414;2022-11-20T14:25:37;3.63;;;1.83;;
39518;SDS011;25200;53.394;10.414;2022-11-20T14:28:11;3.35;;;1.70;;
39518;SDS011;25200;53.394;10.414;2022-11-20T14:30:48;4.50;;;1.92;;
39518;SDS011;25200;53.394;10.414;2022-11-20T14:33:14;5.00;;;1.98;;
39518;SDS011;25200;53.394;10.414;2022-11-20T14:35:44;2.80;;;1.60;;
39518;SDS011;25200;53.394;10.414;2022-11-20T14:38:15;3.72;;;1.90;;
39518;SDS011;25200;53.394;10.414;2022-11-20T14:40:45;3.97;;;1.95;;
39518;SDS011;25200;53.394;10.414;2022-11-20T14:45:58;3.78;;;2.10;;
39518;SDS011;25200;53.394;10.414;2022-11-20T14:48:38;3.67;;;1.88;;
39518;SDS011;25200;53.394;10.414;2022-11-20T14:51:22;5.15;;;3.05;;
39518;SDS011;25200;53.394;10.414;2022-11-20T14:54:08;5.72;;;2.92;;
39518;SDS011;25200;53.394;10.414;2022-11-20T14:56:34;5.50;;;3.25;;
39518;SDS011;25200;53.394;10.414;2022-11-20T14:58:59;4.97;;;2.60;;
39518;SDS011;25200;53.394;10.414;2022-11-20T15:01:26;6.38;;;3.45;;
39518;SDS011;25200;53.394;10.414;2022-11-20T15:06:54;9.52;;;3.40;;
39518;SDS011;25200;53.394;10.414;2022-11-20T15:09:21;5.90;;;3.08;;
39518;SDS011;25200;53.394;10.414;2022-11-20T15:11:55;7.00;;;3.28;;
39518;SDS011;25200;53.394;10.414;2022-11-20T15:14:23;4.80;;;2.58;;
39518;SDS011;25200;53.394;10.414;2022-11-20T15:16:50;4.07;;;2.42;;
39518;SDS011;25200;53.394;10.414;2022-11-20T15:19:17;5.50;;;2.90;;
39518;SDS011;25200;53.394;10.414;2022-11-20T15:21:45;7.70;;;3.90;;
39518;SDS011;25200;53.394;10.414;2022-11-20T15:24:10;6.00;;;3.63;;
39518;SDS011;25200;53.394;10.414;2022-11-20T15:26:36;7.80;;;3.60;;
39518;SDS011;25200;53.394;10.414;2022-11-20T15:29:13;7.13;;;3.70;;
39518;SDS011;25200;53.394;10.414;2022-11-20T15:31:44;6.72;;;3.58;;
39518;SDS011;25200;53.394;10.414;2022-11-20T15:34:10;7.32;;;3.40;;
39518;SDS011;25200;53.394;10.414;2022-11-20T15:36:37;5.15;;;2.95;;
39518;SDS011;25200;53.394;10.414;2022-11-20T15:39:04;12.85;;;6.55;;
39518;SDS011;25200;53.394;10.414;2022-11-20T15:41:30;17.85;;;8.60;;
39518;SDS011;25200;53.394;10.414;2022-11-20T15:43:55;10.15;;;5.65;;
39518;SDS011;25200;53.394;10.414;2022-11-20T15:46:25;9.32;;;4.80;;
39518;SDS011;25200;53.394;10.414;2022-11-20T15:48:54;10.27;;;5.80;;
39518;SDS011;25200;53.394;10.414;2022-11-20T15:51:24;25.88;;;12.25;;
39518;SDS011;25200;53.394;10.414;2022-11-20T15:53:50;14.70;;;7.95;;
39518;SDS011;25200;53.394;10.414;2022-11-20T15:56:15;11.85;;;6.45;;
39518;SDS011;25200;53.394;10.414;2022-11-20T15:58:41;10.80;;;4.22;;
39518;SDS011;25200;53.394;10.414;2022-11-20T16:01:10;8.98;;;4.05;;
39518;SDS011;25200;53.394;10.414;2022-11-20T16:03:37;5.03;;;3.00;;
39518;SDS011;25200;53.394;10.414;2022-11-20T16:06:03;7.45;;;3.40;;
39518;SDS011;25200;53.394;10.414;2022-11-20T16:08:29;8.30;;;3.95;;
39518;SDS011;25200;53.394;10.414;2022-11-20T16:10:54;6.00;;;3.35;;
39518;SDS011;25200;53.394;10.414;2022-11-20T16:13:20;7.50;;;3.50;;
39518;SDS011;25200;53.394;10.414;2022-11-20T16:16:18;5.57;;;3.47;;
39518;SDS011;25200;53.394;10.414;2022-11-20T16:18:48;7.18;;;4.00;;
39518;SDS011;25200;53.394;10.414;2022-11-20T16:21:17;9.45;;;4.57;;
39518;SDS011;25200;53.394;10.414;2022-11-20T16:23:42;11.93;;;5.22;;
39518;SDS011;25200;53.394;10.414;2022-11-20T16:26:09;11.25;;;5.50;;
39518;SDS011;25200;53.394;10.414;2022-11-20T16:28:39;12.18;;;5.55;;
39518;SDS011;25200;53.394;10.414;2022-11-20T16:31:11;10.40;;;4.75;;
39518;SDS011;25200;53.394;10.414;2022-11-20T16:33:38;7.40;;;4.22;;
39518;SDS011;25200;53.394;10.414;2022-11-20T16:38:35;9.25;;;5.18;;
39518;SDS011;25200;53.394;10.414;2022-11-20T16:41:01;7.75;;;4.55;;
39518;SDS011;25200;53.394;10.414;2022-11-20T16:43:27;7.97;;;4.95;;
39518;SDS011;25200;53.394;10.414;2022-11-20T16:45:53;8.85;;;4.57;;
39518;SDS011;25200;53.394;10.414;2022-11-20T16:48:18;9.32;;;4.40;;
39518;SDS011;25200;53.394;10.414;2022-11-20T16:50:45;8.25;;;4.60;;